sensor_id;sensor_type;location;lat;lon;timestamp;temperature;humidity
1614;DHT22;800;48.824;9.346;2023-02-28T00:02:12;4.80;42.00
1614;DHT22;800;48.824;9.346;2023-02-28T00:04:37;4.70;41.90
1614;DHT22;800;48.824;9.346;2023-02-28T00:07:03;4.80;41.90
1614;DHT22;800;48.824;9.346;2023-02-28T00:09:29;5.00;41.90
1614;DHT22;800;48.824;9.346;2023-02-28T00:11:54;5.10;41.40
1614;DHT22;800;48.824;9.346;2023-02-28T00:14:20;4.80;41.50
1614;DHT22;800;48.824;9.346;2023-02-28T00:16:45;4.80;41.80
1614;DHT22;800;48.824;9.346;2023-02-28T00:19:11;4.50;42.10
1614;DHT22;800;48.824;9.346;2023-02-28T00:21:38;4.50;42.50
1614;DHT22;800;48.824;9.346;2023-02-28T00:24:06;4.70;42.50
1614;DHT22;800;48.824;9.346;2023-02-28T00:26:32;4.70;42.60
1614;DHT22;800;48.824;9.346;2023-02-28T00:28:57;4.70;42.60
1614;DHT22;800;48.824;9.346;2023-02-28T00:31:23;4.80;42.60
1614;DHT22;800;48.824;9.346;2023-02-28T00:33:48;4.50;42.90
1614;DHT22;800;48.824;9.346;2023-02-28T00:36:16;4.50;43.10
1614;DHT22;800;48.824;9.346;2023-02-28T00:38:41;4.60;43.40
1614;DHT22;800;48.824;9.346;2023-02-28T00:41:07;4.70;43.30
1614;DHT22;800;48.824;9.346;2023-02-28T00:43:34;4.70;42.90
1614;DHT22;800;48.824;9.346;2023-02-28T00:46:01;4.80;43.00
1614;DHT22;800;48.824;9.346;2023-02-28T00:48:27;4.90;42.90
1614;DHT22;800;48.824;9.346;2023-02-28T00:50:52;5.00;42.70
1614;DHT22;800;48.824;9.346;2023-02-28T00:53:18;5.00;42.60
1614;DHT22;800;48.824;9.346;2023-02-28T00:55:43;5.00;42.60
1614;DHT22;800;48.824;9.346;2023-02-28T00:58:09;5.10;42.60
1614;DHT22;800;48.824;9.346;2023-02-28T01:00:35;5.00;42.70
1614;DHT22;800;48.824;9.346;2023-02-28T01:03:00;4.80;42.80
1614;DHT22;800;48.824;9.346;2023-02-28T01:05:26;4.90;43.10
1614;DHT22;800;48.824;9.346;2023-02-28T01:07:52;4.70;43.20
1614;DHT22;800;48.824;9.346;2023-02-28T01:10:17;4.70;43.50
1614;DHT22;800;48.824;9.346;2023-02-28T01:12:43;4.70;43.60
1614;DHT22;800;48.824;9.346;2023-02-28T01:15:10;4.70;43.60
1614;DHT22;800;48.824;9.346;2023-02-28T01:17:36;4.50;44.00
1614;DHT22;800;48.824;9.346;2023-02-28T01:20:03;4.60;44.10
1614;DHT22;800;48.824;9.346;2023-02-28T01:22:29;4.50;44.20
1614;DHT22;800;48.824;9.346;2023-02-28T01:24:54;4.50;44.40
1614;DHT22;800;48.824;9.346;2023-02-28T01:27:20;4.40;44.60
1614;DHT22;800;48.824;9.346;2023-02-28T01:29:46;4.40;44.70
1614;DHT22;800;48.824;9.346;2023-02-28T01:32:11;4.40;44.80
1614;DHT22;800;48.824;9.346;2023-02-28T01:34:37;4.40;44.90
1614;DHT22;800;48.824;9.346;2023-02-28T01:37:02;4.30;45.10
1614;DHT22;800;48.824;9.346;2023-02-28T01:39:29;4.20;45.40
1614;DHT22;800;48.824;9.346;2023-02-28T01:41:54;4.30;45.50
1614;DHT22;800;48.824;9.346;2023-02-28T01:45:00;4.50;45.50
1614;DHT22;800;48.824;9.346;2023-02-28T01:47:32;4.40;45.20
1614;DHT22;800;48.824;9.346;2023-02-28T01:50:01;4.40;45.20
1614;DHT22;800;48.824;9.346;2023-02-28T01:52:30;4.40;45.50
1614;DHT22;800;48.824;9.346;2023-02-28T01:54:57;4.30;45.50
1614;DHT22;800;48.824;9.346;2023-02-28T01:57:34;4.30;45.80
1614;DHT22;800;48.824;9.346;2023-02-28T02:00:08;4.30;45.80
1614;DHT22;800;48.824;9.346;2023-02-28T02:02:36;4.20;45.90
1614;DHT22;800;48.824;9.346;2023-02-28T02:05:08;4.20;46.10
1614;DHT22;800;48.824;9.346;2023-02-28T02:07:40;4.10;46.30
1614;DHT22;800;48.824;9.346;2023-02-28T02:10:19;4.20;46.30
1614;DHT22;800;48.824;9.346;2023-02-28T02:15:54;4.10;46.90
1614;DHT22;800;48.824;9.346;2023-02-28T02:18:37;4.00;46.90
1614;DHT22;800;48.824;9.346;2023-02-28T02:24:02;4.20;47.10
1614;DHT22;800;48.824;9.346;2023-02-28T02:26:52;4.30;47.00
1614;DHT22;800;48.824;9.346;2023-02-28T02:37:58;4.40;46.80
1614;DHT22;800;48.824;9.346;2023-02-28T02:40:35;4.40;46.80
1614;DHT22;800;48.824;9.346;2023-02-28T02:43:24;4.30;46.90
1614;DHT22;800;48.824;9.346;2023-02-28T02:45:56;4.40;47.00
1614;DHT22;800;48.824;9.346;2023-02-28T02:48:27;4.40;47.20
1614;DHT22;800;48.824;9.346;2023-02-28T02:50:57;4.20;47.50
1614;DHT22;800;48.824;9.346;2023-02-28T02:53:33;4.00;47.70
1614;DHT22;800;48.824;9.346;2023-02-28T02:56:01;4.20;48.00
1614;DHT22;800;48.824;9.346;2023-02-28T02:58:35;4.40;47.70
1614;DHT22;800;48.824;9.346;2023-02-28T03:01:07;4.20;47.60
1614;DHT22;800;48.824;9.346;2023-02-28T03:03:35;4.30;47.90
1614;DHT22;800;48.824;9.346;2023-02-28T03:06:01;4.20;48.00
1614;DHT22;800;48.824;9.346;2023-02-28T03:08:29;4.10;48.10
1614;DHT22;800;48.824;9.346;2023-02-28T03:11:07;4.10;48.30
1614;DHT22;800;48.824;9.346;2023-02-28T03:27:28;4.00;49.10
1614;DHT22;800;48.824;9.346;2023-02-28T03:30:24;3.90;49.10
1614;DHT22;800;48.824;9.346;2023-02-28T03:35:47;3.90;49.20
1614;DHT22;800;48.824;9.346;2023-02-28T03:40:55;4.00;49.00
1614;DHT22;800;48.824;9.346;2023-02-28T03:43:27;4.00;49.00
1614;DHT22;800;48.824;9.346;2023-02-28T03:45:55;4.20;49.00
1614;DHT22;800;48.824;9.346;2023-02-28T03:48:30;4.10;48.80
1614;DHT22;800;48.824;9.346;2023-02-28T03:50:58;3.90;49.10
1614;DHT22;800;48.824;9.346;2023-02-28T03:53:29;3.60;49.60
1614;DHT22;800;48.824;9.346;2023-02-28T03:56:20;3.80;49.70
1614;DHT22;800;48.824;9.346;2023-02-28T03:58:54;3.90;49.40
1614;DHT22;800;48.824;9.346;2023-02-28T04:01:39;4.10;49.40
1614;DHT22;800;48.824;9.346;2023-02-28T04:04:07;4.10;48.90
1614;DHT22;800;48.824;9.346;2023-02-28T04:06:34;4.20;48.80
1614;DHT22;800;48.824;9.346;2023-02-28T04:09:01;4.00;49.00
1614;DHT22;800;48.824;9.346;2023-02-28T04:11:37;4.10;49.10
1614;DHT22;800;48.824;9.346;2023-02-28T04:14:07;4.30;48.70
1614;DHT22;800;48.824;9.346;2023-02-28T04:16:35;4.20;48.70
1614;DHT22;800;48.824;9.346;2023-02-28T04:19:02;4.20;48.80
1614;DHT22;800;48.824;9.346;2023-02-28T04:21:36;4.20;48.80
1614;DHT22;800;48.824;9.346;2023-02-28T04:24:03;4.30;48.70
1614;DHT22;800;48.824;9.346;2023-02-28T04:26:36;4.20;48.80
1614;DHT22;800;48.824;9.346;2023-02-28T04:29:07;4.00;49.10
1614;DHT22;800;48.824;9.346;2023-02-28T04:31:33;4.00;49.40
1614;DHT22;800;48.824;9.346;2023-02-28T04:33:59;4.20;49.30
1614;DHT22;800;48.824;9.346;2023-02-28T04:36:26;4.20;49.10
1614;DHT22;800;48.824;9.346;2023-02-28T04:38:52;4.00;49.60
1614;DHT22;800;48.824;9.346;2023-02-28T04:41:18;4.10;49.60
1614;DHT22;800;48.824;9.346;2023-02-28T04:43:47;4.10;49.50
1614;DHT22;800;48.824;9.346;2023-02-28T04:46:12;4.20;49.70
1614;DHT22;800;48.824;9.346;2023-02-28T04:48:39;4.30;49.70
1614;DHT22;800;48.824;9.346;2023-02-28T04:51:10;4.40;49.50
1614;DHT22;800;48.824;9.346;2023-02-28T04:53:38;4.30;49.40
1614;DHT22;800;48.824;9.346;2023-02-28T04:56:05;4.20;49.60
1614;DHT22;800;48.824;9.346;2023-02-28T04:58:31;3.90;49.90
1614;DHT22;800;48.824;9.346;2023-02-28T05:01:23;4.00;50.20
1614;DHT22;800;48.824;9.346;2023-02-28T05:03:49;4.30;50.00
1614;DHT22;800;48.824;9.346;2023-02-28T05:06:16;4.50;49.90
1614;DHT22;800;48.824;9.346;2023-02-28T05:08:42;4.50;49.30
1614;DHT22;800;48.824;9.346;2023-02-28T05:13:45;4.50;49.30
1614;DHT22;800;48.824;9.346;2023-02-28T05:16:11;4.40;49.50
1614;DHT22;800;48.824;9.346;2023-02-28T05:18:37;4.10;49.70
1614;DHT22;800;48.824;9.346;2023-02-28T05:21:02;4.10;50.20
1614;DHT22;800;48.824;9.346;2023-02-28T05:23:28;4.10;50.30
1614;DHT22;800;48.824;9.346;2023-02-28T05:25:54;4.20;50.40
1614;DHT22;800;48.824;9.346;2023-02-28T05:28:20;4.20;50.50
1614;DHT22;800;48.824;9.346;2023-02-28T05:30:46;4.20;50.30
1614;DHT22;800;48.824;9.346;2023-02-28T05:33:12;4.10;50.20
1614;DHT22;800;48.824;9.346;2023-02-28T05:35:39;4.00;50.40
1614;DHT22;800;48.824;9.346;2023-02-28T05:38:05;4.00;50.70
1614;DHT22;800;48.824;9.346;2023-02-28T05:40:30;4.00;50.70
1614;DHT22;800;48.824;9.346;2023-02-28T05:42:56;4.00;50.70
1614;DHT22;800;48.824;9.346;2023-02-28T05:45:21;4.10;50.50
1614;DHT22;800;48.824;9.346;2023-02-28T05:47:47;4.30;50.30
1614;DHT22;800;48.824;9.346;2023-02-28T05:50:13;4.40;50.00
1614;DHT22;800;48.824;9.346;2023-02-28T05:52:38;4.30;50.00
1614;DHT22;800;48.824;9.346;2023-02-28T05:55:04;4.30;49.80
1614;DHT22;800;48.824;9.346;2023-02-28T05:57:30;4.50;49.60
1614;DHT22;800;48.824;9.346;2023-02-28T05:59:55;4.50;49.30
1614;DHT22;800;48.824;9.346;2023-02-28T06:02:21;4.50;49.20
1614;DHT22;800;48.824;9.346;2023-02-28T06:04:46;4.60;49.80
1614;DHT22;800;48.824;9.346;2023-02-28T06:07:12;4.60;49.20
1614;DHT22;800;48.824;9.346;2023-02-28T06:09:38;4.50;48.90
1614;DHT22;800;48.824;9.346;2023-02-28T06:12:05;4.60;49.00
1614;DHT22;800;48.824;9.346;2023-02-28T06:14:33;4.80;49.00
1614;DHT22;800;48.824;9.346;2023-02-28T06:17:00;4.90;48.50
1614;DHT22;800;48.824;9.346;2023-02-28T06:19:26;5.00;48.30
1614;DHT22;800;48.824;9.346;2023-02-28T06:21:52;5.10;48.20
1614;DHT22;800;48.824;9.346;2023-02-28T06:24:19;5.00;48.60
1614;DHT22;800;48.824;9.346;2023-02-28T06:26:45;5.30;50.60
1614;DHT22;800;48.824;9.346;2023-02-28T06:29:11;5.50;49.30
1614;DHT22;800;48.824;9.346;2023-02-28T06:31:37;5.60;47.80
1614;DHT22;800;48.824;9.346;2023-02-28T06:34:04;5.70;47.60
1614;DHT22;800;48.824;9.346;2023-02-28T06:36:29;5.80;47.50
1614;DHT22;800;48.824;9.346;2023-02-28T06:38:59;6.00;47.20
1614;DHT22;800;48.824;9.346;2023-02-28T06:41:25;6.20;47.70
1614;DHT22;800;48.824;9.346;2023-02-28T06:43:52;6.50;46.50
1614;DHT22;800;48.824;9.346;2023-02-28T06:46:18;6.40;45.50
1614;DHT22;800;48.824;9.346;2023-02-28T06:48:44;6.40;45.90
1614;DHT22;800;48.824;9.346;2023-02-28T06:51:17;6.60;45.80
1614;DHT22;800;48.824;9.346;2023-02-28T06:53:43;6.50;44.70
1614;DHT22;800;48.824;9.346;2023-02-28T06:56:13;6.30;44.90
1614;DHT22;800;48.824;9.346;2023-02-28T06:58:39;6.40;45.40
1614;DHT22;800;48.824;9.346;2023-02-28T07:01:06;6.30;45.30
1614;DHT22;800;48.824;9.346;2023-02-28T07:03:32;6.00;45.20
1614;DHT22;800;48.824;9.346;2023-02-28T07:05:59;6.10;45.40
1614;DHT22;800;48.824;9.346;2023-02-28T07:08:25;6.20;45.10
1614;DHT22;800;48.824;9.346;2023-02-28T07:10:55;6.20;45.60
1614;DHT22;800;48.824;9.346;2023-02-28T07:13:21;6.00;46.70
1614;DHT22;800;48.824;9.346;2023-02-28T07:18:20;5.60;45.70
1614;DHT22;800;48.824;9.346;2023-02-28T07:20:45;5.70;46.30
1614;DHT22;800;48.824;9.346;2023-02-28T07:23:11;5.60;45.80
1614;DHT22;800;48.824;9.346;2023-02-28T07:25:37;5.50;46.00
1614;DHT22;800;48.824;9.346;2023-02-28T07:28:02;5.70;46.20
1614;DHT22;800;48.824;9.346;2023-02-28T07:30:28;5.80;46.10
1614;DHT22;800;48.824;9.346;2023-02-28T07:32:53;5.60;45.60
1614;DHT22;800;48.824;9.346;2023-02-28T07:35:21;5.30;46.00
1614;DHT22;800;48.824;9.346;2023-02-28T07:37:47;5.30;46.50
1614;DHT22;800;48.824;9.346;2023-02-28T07:40:13;5.30;46.80
1614;DHT22;800;48.824;9.346;2023-02-28T07:42:42;5.40;46.70
1614;DHT22;800;48.824;9.346;2023-02-28T07:45:09;5.50;46.30
1614;DHT22;800;48.824;9.346;2023-02-28T07:47:37;5.50;46.10
1614;DHT22;800;48.824;9.346;2023-02-28T07:50:05;5.40;46.20
1614;DHT22;800;48.824;9.346;2023-02-28T07:52:30;5.30;46.10
1614;DHT22;800;48.824;9.346;2023-02-28T07:54:57;5.30;46.40
1614;DHT22;800;48.824;9.346;2023-02-28T07:57:23;5.20;46.20
1614;DHT22;800;48.824;9.346;2023-02-28T07:59:48;5.10;46.40
1614;DHT22;800;48.824;9.346;2023-02-28T08:02:16;4.70;47.30
1614;DHT22;800;48.824;9.346;2023-02-28T08:04:42;4.70;47.70
1614;DHT22;800;48.824;9.346;2023-02-28T08:07:07;5.00;47.80
1614;DHT22;800;48.824;9.346;2023-02-28T08:09:33;5.30;47.70
1614;DHT22;800;48.824;9.346;2023-02-28T08:11:59;5.40;47.00
1614;DHT22;800;48.824;9.346;2023-02-28T08:14:25;5.50;46.70
1614;DHT22;800;48.824;9.346;2023-02-28T08:16:50;5.40;46.40
1614;DHT22;800;48.824;9.346;2023-02-28T08:19:16;5.10;46.70
1614;DHT22;800;48.824;9.346;2023-02-28T08:21:42;5.10;46.70
1614;DHT22;800;48.824;9.346;2023-02-28T08:24:07;5.30;46.80
1614;DHT22;800;48.824;9.346;2023-02-28T08:26:33;5.70;50.40
1614;DHT22;800;48.824;9.346;2023-02-28T08:28:58;6.30;49.70
1614;DHT22;800;48.824;9.346;2023-02-28T08:31:24;6.80;49.80
1614;DHT22;800;48.824;9.346;2023-02-28T08:33:50;6.70;44.10
1614;DHT22;800;48.824;9.346;2023-02-28T08:36:17;6.20;44.00
1614;DHT22;800;48.824;9.346;2023-02-28T08:38:43;6.10;44.30
1614;DHT22;800;48.824;9.346;2023-02-28T08:41:11;5.90;44.60
1614;DHT22;800;48.824;9.346;2023-02-28T08:43:39;5.90;45.10
1614;DHT22;800;48.824;9.346;2023-02-28T08:46:05;5.80;45.30
1614;DHT22;800;48.824;9.346;2023-02-28T08:48:32;5.70;45.60
1614;DHT22;800;48.824;9.346;2023-02-28T08:51:10;5.80;45.80
1614;DHT22;800;48.824;9.346;2023-02-28T08:53:37;5.70;45.50
1614;DHT22;800;48.824;9.346;2023-02-28T08:56:12;5.30;45.60
1614;DHT22;800;48.824;9.346;2023-02-28T08:58:38;5.30;46.20
1614;DHT22;800;48.824;9.346;2023-02-28T09:01:09;5.50;46.10
1614;DHT22;800;48.824;9.346;2023-02-28T09:03:35;5.40;46.00
1614;DHT22;800;48.824;9.346;2023-02-28T09:06:01;5.10;46.00
1614;DHT22;800;48.824;9.346;2023-02-28T09:08:29;5.00;46.60
1614;DHT22;800;48.824;9.346;2023-02-28T09:10:58;5.10;47.00
1614;DHT22;800;48.824;9.346;2023-02-28T09:13:25;5.20;46.80
1614;DHT22;800;48.824;9.346;2023-02-28T09:15:51;5.20;46.40
1614;DHT22;800;48.824;9.346;2023-02-28T09:18:17;5.20;46.40
1614;DHT22;800;48.824;9.346;2023-02-28T09:20:43;5.40;46.30
1614;DHT22;800;48.824;9.346;2023-02-28T09:23:10;5.20;46.50
1614;DHT22;800;48.824;9.346;2023-02-28T09:25:36;5.40;46.60
1614;DHT22;800;48.824;9.346;2023-02-28T09:28:02;5.30;46.50
1614;DHT22;800;48.824;9.346;2023-02-28T09:30:29;5.10;46.60
1614;DHT22;800;48.824;9.346;2023-02-28T09:32:54;5.00;46.80
1614;DHT22;800;48.824;9.346;2023-02-28T09:35:22;5.20;46.80
1614;DHT22;800;48.824;9.346;2023-02-28T09:37:50;5.30;46.60
1614;DHT22;800;48.824;9.346;2023-02-28T09:40:18;5.50;46.90
1614;DHT22;800;48.824;9.346;2023-02-28T09:42:47;5.60;46.40
1614;DHT22;800;48.824;9.346;2023-02-28T09:45:39;5.20;45.60
1614;DHT22;800;48.824;9.346;2023-02-28T09:48:17;5.10;46.20
1614;DHT22;800;48.824;9.346;2023-02-28T09:50:50;5.40;46.30
1614;DHT22;800;48.824;9.346;2023-02-28T09:53:29;5.20;46.00
1614;DHT22;800;48.824;9.346;2023-02-28T10:01:12;5.60;46.20
1614;DHT22;800;48.824;9.346;2023-02-28T10:03:55;5.70;45.90
1614;DHT22;800;48.824;9.346;2023-02-28T10:06:26;6.10;45.50
1614;DHT22;800;48.824;9.346;2023-02-28T10:09:11;6.20;45.40
1614;DHT22;800;48.824;9.346;2023-02-28T10:11:40;6.20;45.10
1614;DHT22;800;48.824;9.346;2023-02-28T10:14:12;6.00;45.00
1614;DHT22;800;48.824;9.346;2023-02-28T10:22:01;5.90;45.80
1614;DHT22;800;48.824;9.346;2023-02-28T10:24:32;6.30;45.40
1614;DHT22;800;48.824;9.346;2023-02-28T10:27:06;6.40;44.50
1614;DHT22;800;48.824;9.346;2023-02-28T10:29:35;6.30;44.30
1614;DHT22;800;48.824;9.346;2023-02-28T10:32:02;6.30;44.60
1614;DHT22;800;48.824;9.346;2023-02-28T10:34:29;6.60;44.50
1614;DHT22;800;48.824;9.346;2023-02-28T10:36:55;6.70;44.20
1614;DHT22;800;48.824;9.346;2023-02-28T10:39:43;6.70;44.10
1614;DHT22;800;48.824;9.346;2023-02-28T10:42:26;7.00;43.80
1614;DHT22;800;48.824;9.346;2023-02-28T10:45:22;6.40;43.50
1614;DHT22;800;48.824;9.346;2023-02-28T10:47:50;6.00;44.70
1614;DHT22;800;48.824;9.346;2023-02-28T10:50:36;6.20;45.20
1614;DHT22;800;48.824;9.346;2023-02-28T10:55:57;6.50;43.90
1614;DHT22;800;48.824;9.346;2023-02-28T10:58:25;6.70;44.00
1614;DHT22;800;48.824;9.346;2023-02-28T11:00:52;6.80;44.20
1614;DHT22;800;48.824;9.346;2023-02-28T11:05:49;7.60;43.00
1614;DHT22;800;48.824;9.346;2023-02-28T11:08:18;8.00;42.10
1614;DHT22;800;48.824;9.346;2023-02-28T11:10:53;8.20;41.60
1614;DHT22;800;48.824;9.346;2023-02-28T11:13:21;8.10;40.80
1614;DHT22;800;48.824;9.346;2023-02-28T11:15:59;8.20;41.30
1614;DHT22;800;48.824;9.346;2023-02-28T11:18:29;8.60;40.90
1614;DHT22;800;48.824;9.346;2023-02-28T11:20:58;8.70;40.40
1614;DHT22;800;48.824;9.346;2023-02-28T11:23:27;8.90;40.20
1614;DHT22;800;48.824;9.346;2023-02-28T11:25:56;9.00;39.70
1614;DHT22;800;48.824;9.346;2023-02-28T11:28:31;9.40;40.10
1614;DHT22;800;48.824;9.346;2023-02-28T11:36:33;9.70;37.40
1614;DHT22;800;48.824;9.346;2023-02-28T11:39:04;9.60;38.60
1614;DHT22;800;48.824;9.346;2023-02-28T11:55:24;9.30;39.20
1614;DHT22;800;48.824;9.346;2023-02-28T12:14:29;10.90;35.60
1614;DHT22;800;48.824;9.346;2023-02-28T12:20:12;11.80;35.40
1614;DHT22;800;48.824;9.346;2023-02-28T12:26:02;12.40;33.60
1614;DHT22;800;48.824;9.346;2023-02-28T12:28:38;12.00;33.50
1614;DHT22;800;48.824;9.346;2023-02-28T12:31:22;12.20;33.70
1614;DHT22;800;48.824;9.346;2023-02-28T12:33:56;12.40;34.00
1614;DHT22;800;48.824;9.346;2023-02-28T12:36:22;12.50;33.80
1614;DHT22;800;48.824;9.346;2023-02-28T12:39:08;12.50;33.70
1614;DHT22;800;48.824;9.346;2023-02-28T12:41:43;12.60;33.60
1614;DHT22;800;48.824;9.346;2023-02-28T12:44:18;12.40;33.10
1614;DHT22;800;48.824;9.346;2023-02-28T12:46:58;12.70;32.70
1614;DHT22;800;48.824;9.346;2023-02-28T12:49:32;12.80;32.10
1614;DHT22;800;48.824;9.346;2023-02-28T12:52:00;12.80;32.30
1614;DHT22;800;48.824;9.346;2023-02-28T12:54:39;12.90;32.80
1614;DHT22;800;48.824;9.346;2023-02-28T12:57:24;12.70;31.80
1614;DHT22;800;48.824;9.346;2023-02-28T13:05:39;12.10;33.60
1614;DHT22;800;48.824;9.346;2023-02-28T13:08:31;12.20;33.30
1614;DHT22;800;48.824;9.346;2023-02-28T13:11:01;12.60;32.50
1614;DHT22;800;48.824;9.346;2023-02-28T13:13:28;12.40;32.20
1614;DHT22;800;48.824;9.346;2023-02-28T13:16:06;12.20;32.10
1614;DHT22;800;48.824;9.346;2023-02-28T13:18:46;12.20;32.90
1614;DHT22;800;48.824;9.346;2023-02-28T13:21:42;12.20;32.60
1614;DHT22;800;48.824;9.346;2023-02-28T13:24:10;12.10;32.70
1614;DHT22;800;48.824;9.346;2023-02-28T13:29:49;12.50;32.80
1614;DHT22;800;48.824;9.346;2023-02-28T13:42:32;12.10;32.90
1614;DHT22;800;48.824;9.346;2023-02-28T14:04:54;12.40;33.40
1614;DHT22;800;48.824;9.346;2023-02-28T14:07:09;12.80;32.50
1614;DHT22;800;48.824;9.346;2023-02-28T14:09:47;13.00;31.90
1614;DHT22;800;48.824;9.346;2023-02-28T14:12:52;13.00;32.30
1614;DHT22;800;48.824;9.346;2023-02-28T14:18:20;13.20;31.90
1614;DHT22;800;48.824;9.346;2023-02-28T14:20:48;13.30;31.50
1614;DHT22;800;48.824;9.346;2023-02-28T14:25:59;13.60;31.80
1614;DHT22;800;48.824;9.346;2023-02-28T14:31:34;13.40;31.10
1614;DHT22;800;48.824;9.346;2023-02-28T14:34:36;13.30;31.50
1614;DHT22;800;48.824;9.346;2023-02-28T14:37:03;13.40;31.80
1614;DHT22;800;48.824;9.346;2023-02-28T14:39:30;13.10;31.30
1614;DHT22;800;48.824;9.346;2023-02-28T14:41:56;13.00;32.30
1614;DHT22;800;48.824;9.346;2023-02-28T14:44:28;13.10;31.70
1614;DHT22;800;48.824;9.346;2023-02-28T14:46:59;13.30;32.60
1614;DHT22;800;48.824;9.346;2023-02-28T14:49:35;13.80;32.70
1614;DHT22;800;48.824;9.346;2023-02-28T14:52:15;14.00;31.40
1614;DHT22;800;48.824;9.346;2023-02-28T14:54:43;13.70;31.40
1614;DHT22;800;48.824;9.346;2023-02-28T14:57:38;13.60;31.40
1614;DHT22;800;48.824;9.346;2023-02-28T15:00:16;13.50;31.60
1614;DHT22;800;48.824;9.346;2023-02-28T15:02:45;13.30;31.70
1614;DHT22;800;48.824;9.346;2023-02-28T15:07:44;13.70;32.20
1614;DHT22;800;48.824;9.346;2023-02-28T15:10:30;13.90;31.60
1614;DHT22;800;48.824;9.346;2023-02-28T15:13:15;13.30;31.20
1614;DHT22;800;48.824;9.346;2023-02-28T15:16:00;13.10;31.70
1614;DHT22;800;48.824;9.346;2023-02-28T15:18:54;13.20;32.10
1614;DHT22;800;48.824;9.346;2023-02-28T15:21:27;13.00;31.90
1614;DHT22;800;48.824;9.346;2023-02-28T15:26:25;12.70;32.80
1614;DHT22;800;48.824;9.346;2023-02-28T15:29:04;12.70;32.70
1614;DHT22;800;48.824;9.346;2023-02-28T15:31:40;12.80;32.60
1614;DHT22;800;48.824;9.346;2023-02-28T15:34:12;12.70;32.50
1614;DHT22;800;48.824;9.346;2023-02-28T15:36:41;12.50;32.20
1614;DHT22;800;48.824;9.346;2023-02-28T15:39:22;12.60;33.10
1614;DHT22;800;48.824;9.346;2023-02-28T15:41:47;12.80;32.80
1614;DHT22;800;48.824;9.346;2023-02-28T15:46:44;12.70;32.60
1614;DHT22;800;48.824;9.346;2023-02-28T15:49:19;12.80;32.40
1614;DHT22;800;48.824;9.346;2023-02-28T15:51:44;12.70;32.90
1614;DHT22;800;48.824;9.346;2023-02-28T15:54:19;12.50;32.90
1614;DHT22;800;48.824;9.346;2023-02-28T15:56:48;12.40;32.80
1614;DHT22;800;48.824;9.346;2023-02-28T15:59:19;11.80;33.20
1614;DHT22;800;48.824;9.346;2023-02-28T16:01:46;11.80;34.00
1614;DHT22;800;48.824;9.346;2023-02-28T16:04:19;11.90;33.80
1614;DHT22;800;48.824;9.346;2023-02-28T16:07:02;11.70;33.90
1614;DHT22;800;48.824;9.346;2023-02-28T16:09:28;11.70;34.10
1614;DHT22;800;48.824;9.346;2023-02-28T16:11:59;11.60;34.00
1614;DHT22;800;48.824;9.346;2023-02-28T16:14:27;11.70;33.90
1614;DHT22;800;48.824;9.346;2023-02-28T16:17:06;11.50;33.90
1614;DHT22;800;48.824;9.346;2023-02-28T16:19:34;11.20;34.40
1614;DHT22;800;48.824;9.346;2023-02-28T16:22:00;11.20;34.60
1614;DHT22;800;48.824;9.346;2023-02-28T16:24:28;11.10;34.70
1614;DHT22;800;48.824;9.346;2023-02-28T16:26:55;11.40;34.60
1614;DHT22;800;48.824;9.346;2023-02-28T16:29:28;11.60;34.40
1614;DHT22;800;48.824;9.346;2023-02-28T16:31:55;11.60;34.20
1614;DHT22;800;48.824;9.346;2023-02-28T16:34:21;11.40;34.50
1614;DHT22;800;48.824;9.346;2023-02-28T16:36:48;11.50;34.50
1614;DHT22;800;48.824;9.346;2023-02-28T16:39:14;11.50;34.30
1614;DHT22;800;48.824;9.346;2023-02-28T16:41:43;11.20;34.30
1614;DHT22;800;48.824;9.346;2023-02-28T16:44:21;11.20;34.70
1614;DHT22;800;48.824;9.346;2023-02-28T16:46:49;11.20;34.70
1614;DHT22;800;48.824;9.346;2023-02-28T16:49:14;11.10;34.70
1614;DHT22;800;48.824;9.346;2023-02-28T16:51:40;11.30;34.70
1614;DHT22;800;48.824;9.346;2023-02-28T16:54:06;11.30;34.60
1614;DHT22;800;48.824;9.346;2023-02-28T16:56:31;11.10;34.80
1614;DHT22;800;48.824;9.346;2023-02-28T16:59:01;11.10;35.00
1614;DHT22;800;48.824;9.346;2023-02-28T17:01:27;11.00;35.10
1614;DHT22;800;48.824;9.346;2023-02-28T17:03:56;11.00;35.10
1614;DHT22;800;48.824;9.346;2023-02-28T17:06:27;10.90;35.10
1614;DHT22;800;48.824;9.346;2023-02-28T17:08:57;10.60;35.40
1614;DHT22;800;48.824;9.346;2023-02-28T17:11:23;10.60;35.60
1614;DHT22;800;48.824;9.346;2023-02-28T17:13:49;10.60;35.80
1614;DHT22;800;48.824;9.346;2023-02-28T17:16:33;10.50;35.80
1614;DHT22;800;48.824;9.346;2023-02-28T17:19:03;10.50;35.80
1614;DHT22;800;48.824;9.346;2023-02-28T17:21:29;10.60;35.90
1614;DHT22;800;48.824;9.346;2023-02-28T17:23:55;10.50;35.90
1614;DHT22;800;48.824;9.346;2023-02-28T17:26:21;10.50;36.00
1614;DHT22;800;48.824;9.346;2023-02-28T17:28:53;10.50;36.00
1614;DHT22;800;48.824;9.346;2023-02-28T17:31:21;10.30;36.10
1614;DHT22;800;48.824;9.346;2023-02-28T17:33:47;10.20;36.30
1614;DHT22;800;48.824;9.346;2023-02-28T17:36:24;10.20;36.30
1614;DHT22;800;48.824;9.346;2023-02-28T17:38:52;10.00;36.40
1614;DHT22;800;48.824;9.346;2023-02-28T17:41:18;9.90;37.50
1614;DHT22;800;48.824;9.346;2023-02-28T17:43:43;9.80;37.70
1614;DHT22;800;48.824;9.346;2023-02-28T17:46:21;9.80;37.90
1614;DHT22;800;48.824;9.346;2023-02-28T17:48:48;9.70;38.20
1614;DHT22;800;48.824;9.346;2023-02-28T17:51:15;9.80;38.10
1614;DHT22;800;48.824;9.346;2023-02-28T17:53:41;9.70;38.00
1614;DHT22;800;48.824;9.346;2023-02-28T17:56:21;9.70;38.00
1614;DHT22;800;48.824;9.346;2023-02-28T17:58:49;9.60;38.10
1614;DHT22;800;48.824;9.346;2023-02-28T18:01:15;9.70;38.10
1614;DHT22;800;48.824;9.346;2023-02-28T18:03:41;9.60;38.10
1614;DHT22;800;48.824;9.346;2023-02-28T18:06:15;9.60;38.20
1614;DHT22;800;48.824;9.346;2023-02-28T18:08:44;9.60;38.30
1614;DHT22;800;48.824;9.346;2023-02-28T18:11:10;9.60;38.40
1614;DHT22;800;48.824;9.346;2023-02-28T18:13:44;9.70;38.30
1614;DHT22;800;48.824;9.346;2023-02-28T18:16:10;9.70;38.30
1614;DHT22;800;48.824;9.346;2023-02-28T18:18:35;9.70;38.30
1614;DHT22;800;48.824;9.346;2023-02-28T18:21:04;9.70;38.10
1614;DHT22;800;48.824;9.346;2023-02-28T18:23:31;9.40;38.20
1614;DHT22;800;48.824;9.346;2023-02-28T18:25:56;9.30;39.10
1614;DHT22;800;48.824;9.346;2023-02-28T18:28:23;9.30;38.70
1614;DHT22;800;48.824;9.346;2023-02-28T18:30:49;9.40;38.60
1614;DHT22;800;48.824;9.346;2023-02-28T18:33:15;9.00;38.60
1614;DHT22;800;48.824;9.346;2023-02-28T18:35:41;9.00;39.10
1614;DHT22;800;48.824;9.346;2023-02-28T18:38:17;9.10;39.00
1614;DHT22;800;48.824;9.346;2023-02-28T18:40:52;9.30;39.00
1614;DHT22;800;48.824;9.346;2023-02-28T18:43:18;9.40;38.90
1614;DHT22;800;48.824;9.346;2023-02-28T18:45:44;9.50;38.80
1614;DHT22;800;48.824;9.346;2023-02-28T18:48:10;9.50;38.60
1614;DHT22;800;48.824;9.346;2023-02-28T18:50:38;9.50;38.60
1614;DHT22;800;48.824;9.346;2023-02-28T18:53:04;9.50;38.60
1614;DHT22;800;48.824;9.346;2023-02-28T18:55:33;9.50;38.60
1614;DHT22;800;48.824;9.346;2023-02-28T18:57:59;9.50;38.70
1614;DHT22;800;48.824;9.346;2023-02-28T19:00:25;9.40;38.60
1614;DHT22;800;48.824;9.346;2023-02-28T19:02:51;9.50;38.60
1614;DHT22;800;48.824;9.346;2023-02-28T19:05:18;9.50;38.60
1614;DHT22;800;48.824;9.346;2023-02-28T19:07:44;9.60;38.60
1614;DHT22;800;48.824;9.346;2023-02-28T19:10:11;9.50;38.50
1614;DHT22;800;48.824;9.346;2023-02-28T19:12:38;9.50;38.60
1614;DHT22;800;48.824;9.346;2023-02-28T19:15:05;9.50;38.70
1614;DHT22;800;48.824;9.346;2023-02-28T19:17:31;9.50;38.70
1614;DHT22;800;48.824;9.346;2023-02-28T19:19:56;9.50;38.70